TAF KBHB
KBHB 090520Z 0906/1006 01015G26KT 2SM -SN BLSN OVC018 FM090800 01014G24KT 3SM -SN BLSN OVC025 FM091200 35011G21KT P6SM VCSH OVC030 FM091500 34008KT P6SM BKN035 FM100500 03004KT P6SM BKN100=
METAR KBHB
WC KBHB
WS KBHB
WV KBHB